Aviation Digital Data Service (ADDS)

Output produced by METARs form (0410 UTC 26 June 2019)
found at http://www.aviationweather.gov/metar/data/
 
Forecast for: OIKB (BANDAR ABBAS INT, IR)
Text: TAF OIKB 252330Z 2600/2706 12008KT 4000 BR/HZ FEW035
Forecast period: 0000 UTC 26 June 2019 to 0600 UTC 27 June 2019
Forecast type: FROM: standard forecast or significant change
Winds: from the ESE (120 degrees) at 9 MPH (8 knots; 4.1 m/s)
Visibility: 2.49 miles (4.01 km)
Ceiling: at least 12,000 feet AGL
Clouds: few clouds at 3500 feet AGL
Weather: HZ BR  (haze, mist)
Text: TEMPO 2600/2603 1500 BR SCT025
Forecast period: 0000 to 0300 UTC 26 June 2019
Forecast type: TEMPORARY: The following changes expected for less than half the time period
Visibility: 0.93 miles (1.50 km)
Ceiling: at least 12,000 feet AGL
Clouds: scattered clouds at 2500 feet AGL
Weather: BR  (mist)
Text: TEMPO 2700/2703 2000 BR
Forecast period: 0000 to 0300 UTC 27 June 2019
Forecast type: TEMPORARY: The following changes expected for less than half the time period
Visibility: 1.24 miles (2.00 km)
Ceiling: unknown
Clouds: missing
Weather: BR  (mist)
Text: TEMPO 2607/2614 18016KT
Forecast period: 0700 to 1400 UTC 26 June 2019
Forecast type: TEMPORARY: The following changes expected for less than half the time period
Winds: from the S (180 degrees) at 18 MPH (16 knots; 8.2 m/s)
Visibility: missing
Ceiling: unknown
Clouds: missing
Weather: no significant weather forecast for this period